M I D A S
Marine Information and Data Acquisition System
Tripno 1108 of the Zeeleeuw from 2006-06-02 06:35:58 to 2006-06-02 14:54:49
Back to CruiseResearch ActivitiesStationsMapUnderway DataData graphs

EquipmentUnitsComment
TimeDGPSUTC
LatitudeDGPSDM.mWGS84
LongitudeDGPSDM.mWGS84
HeadingGyrodeg 
SOGDGPSknotsSpeed over ground
COGDGPSdegCourse over ground
DepthEcho soundermeters200 kHz
Missing or incorrect values are displayed as -999
Navigation data collected by the RV Zeeleeuw from 2006-06-02 06:32:24 to 2006-06-02 15:07:40
Time Latitude Longitude Heading SOG COG Depth
2006-06-02 06:33:29 51°13.609 2°56.051 105.1 2.8 286 -999
2006-06-02 06:34:29 51°13.626 2°55.96 118.6 4 293 -999
2006-06-02 06:35:29 51°13.669 2°55.86 134.4 4.9 311 -999
2006-06-02 06:36:29 51°13.718 2°55.776 131.3 3 312 12.6
2006-06-02 06:37:29 51°13.732 2°55.748 101.8 1 294 -999
2006-06-02 06:38:29 51°13.736 2°55.733 70.9 0.3 301 4.6
2006-06-02 06:39:29 51°13.724 2°55.7 42.7 0.4 270 -999
2006-06-02 06:40:29 51°13.76 2°55.692 346.5 3.9 340 11.6
2006-06-02 06:41:29 51°13.855 2°55.625 337.6 7.3 334 11.9
2006-06-02 06:42:29 51°13.973 2°55.539 339.7 8 337 11.9
2006-06-02 06:43:29 51°14.091 2°55.457 339.7 7.7 336 12
2006-06-02 06:44:29 51°14.204 2°55.358 327.5 7.9 323 11.9
2006-06-02 06:45:29 51°14.3 2°55.196 313.7 8.7 310 11.8
2006-06-02 06:46:29 51°14.411 2°55.019 323 9.7 319 11.5
2006-06-02 06:47:29 51°14.566 2°54.898 345.9 11.1 344 10.5
2006-06-02 06:48:28 51°14.752 2°54.832 350.3 12.2 346 10.2
2006-06-02 06:49:29 51°14.954 2°54.747 349.8 12.4 347 10.2
2006-06-02 06:50:29 51°15.157 2°54.663 347.9 12.9 345 9.4
2006-06-02 06:51:29 51°15.366 2°54.579 345.6 12.9 342 9.9
2006-06-02 06:52:28 51°15.572 2°54.502 353.9 13 350 10.7
2006-06-02 06:53:29 51°15.788 2°54.437 351 13 348 11.3
2006-06-02 06:54:28 51°15.998 2°54.372 351.3 13 348 11.7
2006-06-02 06:55:28 51°16.169 2°54.32 352.1 7.9 351 12.3
2006-06-02 06:56:29 51°16.248 2°54.302 346.2 1.4 356 12.3
2006-06-02 06:57:29 51°16.247 2°54.317 346.5 0.6 95 -999
2006-06-02 06:58:29 51°16.245 2°54.328 343.3 0.4 92 12.2
2006-06-02 06:59:29 51°16.244 2°54.338 336.7 0.3 117 12.2
2006-06-02 07:00:29 51°16.243 2°54.347 330 0.2 109 12.2
2006-06-02 07:01:29 51°16.243 2°54.355 319.9 0.2 99 12.3
2006-06-02 07:02:29 51°16.244 2°54.363 311.8 0.5 69 12.1
2006-06-02 07:03:29 51°16.245 2°54.371 303.3 0.3 104 12.1
2006-06-02 07:04:29 51°16.247 2°54.379 296.8 0.3 60 12.2
2006-06-02 07:05:29 51°16.263 2°54.34 297.2 4.2 301 12.1
2006-06-02 07:06:29 51°16.347 2°54.178 314.1 10.2 313 12.1
2006-06-02 07:07:29 51°16.489 2°53.976 322.3 12.1 319 12.1
2006-06-02 07:08:29 51°16.651 2°53.757 321.6 13 319 12.3
2006-06-02 07:09:29 51°16.818 2°53.533 323.8 13.1 322 11.6
2006-06-02 07:10:29 51°16.982 2°53.309 320.3 12.8 319 8.7
2006-06-02 07:11:29 51°17.15 2°53.087 322.2 13.3 320 9.8
2006-06-02 07:12:29 51°17.304 2°52.843 315.2 13 314 10.4
2006-06-02 07:13:29 51°17.452 2°52.586 315.4 13.1 313 10.8
2006-06-02 07:14:29 51°17.601 2°52.338 316.6 12.9 314 11
2006-06-02 07:15:29 51°17.748 2°52.093 317.1 12.9 314 11.1
2006-06-02 07:16:29 51°17.894 2°51.842 316.9 12.9 314 10.9
2006-06-02 07:17:29 51°18.044 2°51.598 318.1 13 314 11.5
2006-06-02 07:18:29 51°18.196 2°51.358 320 12.8 317 12.6
2006-06-02 07:19:29 51°18.337 2°51.159 322.5 9.5 320 13.7
2006-06-02 07:20:29 51°18.422 2°51.04 322.5 5.2 321 14.2
2006-06-02 07:21:29 51°18.468 2°50.993 347.6 1.2 334 14.5
2006-06-02 07:22:29 51°18.473 2°50.987 1.9 0.4 300 14.6
2006-06-02 07:23:29 51°18.476 2°50.98 354.9 0.2 329 -999
2006-06-02 07:24:29 51°18.48 2°50.976 346.4 0.3 327 -999
2006-06-02 07:25:29 51°18.484 2°50.97 338.9 0.2 315 14.5
2006-06-02 07:26:28 51°18.487 2°50.966 330 0.2 312 14.5
2006-06-02 07:27:28 51°18.489 2°50.959 321.1 0.3 288 14.5
2006-06-02 07:28:29 51°18.493 2°50.954 314.3 0.4 335 14.7
2006-06-02 07:29:29 51°18.495 2°50.947 307.7 0.3 298 14.5
2006-06-02 07:30:29 51°18.499 2°50.937 301.8 0.9 318 14.5
2006-06-02 07:31:29 51°18.529 2°50.891 326.8 4.6 328 14.6
2006-06-02 07:32:29 51°18.641 2°50.921 38.3 9.1 37 14.8
2006-06-02 07:33:29 51°18.736 2°51.18 65.5 12.5 62 14.6
2006-06-02 07:34:29 51°18.799 2°51.498 79.9 12.7 76 14.6
2006-06-02 07:35:29 51°18.852 2°51.825 79.2 12.7 75 14.3
2006-06-02 07:36:29 51°18.912 2°52.148 77.9 12.6 74 13.9
2006-06-02 07:37:29 51°18.973 2°52.467 77.5 12.5 73 13.4
2006-06-02 07:38:29 51°19.032 2°52.785 78.3 12.6 72 12.8
2006-06-02 07:39:29 51°19.1 2°53.099 74.3 12.4 71 12.7
2006-06-02 07:40:29 51°19.164 2°53.413 77.9 12.4 73 12.6
2006-06-02 07:41:29 51°19.227 2°53.729 76.5 12.5 71 12.5
2006-06-02 07:42:29 51°19.292 2°54.047 77.6 12.8 70 12.3
2006-06-02 07:43:29 51°19.362 2°54.369 78.3 12.8 71 12.3
2006-06-02 07:44:29 51°19.431 2°54.691 76.4 12.9 68 12.3
2006-06-02 07:45:29 51°19.499 2°55.013 77 12.8 71 12.4
2006-06-02 07:46:29 51°19.563 2°55.332 77.5 12.6 72 12.3
2006-06-02 07:47:29 51°19.629 2°55.651 76.3 12.6 71 12.1
2006-06-02 07:48:29 51°19.695 2°55.97 77.6 12.6 73 11.8
2006-06-02 07:49:29 51°19.759 2°56.289 78.3 12.7 73 11.7
2006-06-02 07:50:29 51°19.823 2°56.604 76.8 12.5 72 11.8
2006-06-02 07:51:29 51°19.883 2°56.92 75.9 12.4 74 11.5
2006-06-02 07:52:29 51°19.948 2°57.233 77.1 12.3 72 11.5
2006-06-02 07:53:29 51°20.009 2°57.546 77.6 12.4 71 11.3
2006-06-02 07:54:29 51°20.07 2°57.861 77.4 12.4 74 11
2006-06-02 07:55:29 51°20.131 2°58.174 77.8 12.4 72 10.9
2006-06-02 07:56:29 51°20.195 2°58.481 74.4 12.1 71 10.8
2006-06-02 07:57:29 51°20.258 2°58.79 75.3 12.3 72 10.8
2006-06-02 07:58:28 51°20.32 2°59.095 76.2 12.2 73 10.8
2006-06-02 07:59:29 51°20.381 2°59.412 76 12.4 74 10.7
2006-06-02 08:00:28 51°20.442 2°59.719 76.7 12.4 71 10.6
2006-06-02 08:01:27 51°20.502 3°0.027 75.4 12.3 72 10.6
2006-06-02 08:02:28 51°20.569 3°0.342 75.4 12.3 71 10.6
2006-06-02 08:03:29 51°20.641 3°0.655 74.5 12.4 73 10.6
2006-06-02 08:04:29 51°20.708 3°0.966 74.5 12.3 71 10.5
2006-06-02 08:05:29 51°20.777 3°1.275 74 12.5 72 10.6
2006-06-02 08:06:29 51°20.843 3°1.583 74.6 12.2 71 10.4
2006-06-02 08:07:28 51°20.91 3°1.885 74.3 12.4 70 10.4
2006-06-02 08:08:29 51°20.984 3°2.194 71.1 12.4 67 10.5
2006-06-02 08:09:28 51°21.058 3°2.492 72.5 12.3 70 10.6
2006-06-02 08:10:29 51°21.13 3°2.804 75.2 12.2 71 10.6
2006-06-02 08:11:28 51°21.193 3°3.109 73.4 12.2 71 10.7
2006-06-02 08:12:29 51°21.262 3°3.422 72.9 12.3 70 10.9
2006-06-02 08:13:28 51°21.328 3°3.726 73.6 12.3 70 10.9
2006-06-02 08:14:29 51°21.39 3°4.04 74.9 12.3 72 10.9
2006-06-02 08:15:28 51°21.453 3°4.342 73.8 12.1 69 10.9
2006-06-02 08:16:29 51°21.521 3°4.653 73.3 12.1 74 11
2006-06-02 08:17:29 51°21.583 3°4.96 74.5 12.1 73 11
2006-06-02 08:18:28 51°21.647 3°5.259 74.7 12.1 70 11.1
2006-06-02 08:19:29 51°21.706 3°5.57 79.8 12.1 78 11.1
2006-06-02 08:20:29 51°21.746 3°5.881 80.5 11.9 78 11.2
2006-06-02 08:21:29 51°21.789 3°6.194 79.6 12.1 76 11.1
2006-06-02 08:22:28 51°21.826 3°6.501 81.8 11.9 81 11.2
2006-06-02 08:23:29 51°21.867 3°6.816 79.2 12 78 11.4
2006-06-02 08:24:29 51°21.902 3°7.128 82.3 12 81 11.3
2006-06-02 08:25:28 51°21.936 3°7.433 82.7 11.8 79 11.5
2006-06-02 08:26:29 51°21.972 3°7.747 81.6 11.9 81 11.6
2006-06-02 08:27:29 51°21.999 3°8.059 83.1 11.7 81 11.5
2006-06-02 08:28:29 51°22.032 3°8.366 84 11.6 81 11.7
2006-06-02 08:29:29 51°22.06 3°8.667 82.6 11.3 80 11.6
2006-06-02 08:30:29 51°22.1 3°8.963 80.6 11.2 77 12.1
2006-06-02 08:31:29 51°22.14 3°9.259 81.3 11.4 77 12.4
2006-06-02 08:32:29 51°22.173 3°9.557 83.8 11.2 82 12.8
2006-06-02 08:33:29 51°22.199 3°9.852 81.9 11.2 81 13.3
2006-06-02 08:34:29 51°22.228 3°10.149 82.7 11.4 81 13.9
2006-06-02 08:35:29 51°22.258 3°10.449 82.4 11.4 82 15
2006-06-02 08:36:29 51°22.291 3°10.749 80.8 11.6 81 17
2006-06-02 08:37:29 51°22.318 3°11.052 84.2 11.4 85 15.7
2006-06-02 08:38:29 51°22.348 3°11.35 83.1 11.1 80 15.5
2006-06-02 08:39:29 51°22.38 3°11.647 81.1 11.3 79 15.3
2006-06-02 08:40:29 51°22.413 3°11.945 82.7 11.4 81 15.3
2006-06-02 08:41:29 51°22.445 3°12.24 83.8 11.2 80 14.3
2006-06-02 08:42:29 51°22.474 3°12.536 86 11.4 85 13.6
2006-06-02 08:43:29 51°22.496 3°12.835 84.4 11.1 81 12.9
2006-06-02 08:44:29 51°22.531 3°13.035 75.3 6.1 69 12.6
2006-06-02 08:45:29 51°22.558 3°13.135 68.4 3.3 56 12.3
2006-06-02 08:46:29 51°22.583 3°13.163 41.8 1.1 309 12.1
2006-06-02 08:47:29 51°22.59 3°13.136 26 1.3 291 12.2
2006-06-02 08:48:29 51°22.597 3°13.102 14.4 1.5 287 12.2
2006-06-02 08:49:29 51°22.603 3°13.064 10.1 1.7 282 12.2
2006-06-02 08:50:29 51°22.608 3°13.023 9.3 1.5 280 12.4
2006-06-02 08:51:29 51°22.611 3°12.982 11.6 1.3 278 12.4
2006-06-02 08:52:29 51°22.613 3°12.942 15.9 1.6 272 12.4
2006-06-02 08:53:29 51°22.615 3°12.902 17.9 1.5 272 12.6
2006-06-02 08:54:29 51°22.625 3°12.867 26.7 2 337 12.6
2006-06-02 08:55:29 51°22.697 3°12.915 41.4 7.4 27 12.3
2006-06-02 08:56:29 51°22.811 3°13.061 50.8 9.9 42 11.4
2006-06-02 08:57:29 51°22.944 3°13.258 50.4 11.3 40 10.9
2006-06-02 08:58:28 51°23.075 3°13.467 53.9 11.3 45 10.4
2006-06-02 08:59:29 51°23.21 3°13.685 55.4 11.4 47 10.5
2006-06-02 09:00:29 51°23.339 3°13.905 55.8 11.4 46 10.4
2006-06-02 09:01:29 51°23.469 3°14.124 54.4 11.4 47 10.9
2006-06-02 09:02:29 51°23.602 3°14.338 53.7 11.2 42 11
2006-06-02 09:03:29 51°23.733 3°14.548 55.9 11.1 46 10
2006-06-02 09:04:29 51°23.869 3°14.754 54.4 11.1 44 11
2006-06-02 09:05:29 51°23.973 3°14.915 58.2 6.9 44 11.6
2006-06-02 09:06:29 51°24.027 3°15.04 75.4 5 63 11.5
2006-06-02 09:07:29 51°24.062 3°15.153 74.6 4.6 63 11.4
2006-06-02 09:08:27 51°24.094 3°15.257 80.3 4.4 75 11.7
2006-06-02 09:09:29 51°24.111 3°15.374 87 4.3 78 11.7
2006-06-02 09:10:29 51°24.128 3°15.487 82.9 4.4 74 12
2006-06-02 09:11:29 51°24.152 3°15.598 81.4 4.4 71 12.1
2006-06-02 09:12:29 51°24.178 3°15.711 80.5 4.8 70 12.1
2006-06-02 09:13:29 51°24.233 3°15.862 69.1 7.9 56 12.4
2006-06-02 09:14:29 51°24.309 3°16.067 68.8 10.3 58 13
2006-06-02 09:15:29 51°24.436 3°16.282 52.4 11.6 38 17.4
2006-06-02 09:16:29 51°24.605 3°16.449 45.8 12 33 17.4
2006-06-02 09:17:29 51°24.774 3°16.618 43.5 12 31 15.6
2006-06-02 09:18:29 51°24.947 3°16.782 43.6 12 31 13.1
2006-06-02 09:19:29 51°25.118 3°16.952 44.4 12.1 33 12.4
2006-06-02 09:20:29 51°25.285 3°17.125 44.6 11.9 34 10.1
2006-06-02 09:21:29 51°25.446 3°17.305 44.7 11.7 37 9.1
2006-06-02 09:22:29 51°25.607 3°17.487 43.5 11.8 35 8.9
2006-06-02 09:23:29 51°25.752 3°17.614 37.1 7.9 21 8.5
2006-06-02 09:24:29 51°25.842 3°17.667 51.2 4.3 36 8.2
2006-06-02 09:25:29 51°25.885 3°17.736 62.8 3.3 47 8.3
2006-06-02 09:26:29 51°25.902 3°17.727 29.3 1.6 272 8.1
2006-06-02 09:27:29 51°25.901 3°17.686 20.9 1.4 266 5.2
2006-06-02 09:28:29 51°25.901 3°17.644 16.3 1.5 267 4.8
2006-06-02 09:29:27 51°25.9 3°17.605 15.1 1.4 269 8
2006-06-02 09:30:29 51°25.899 3°17.564 17.4 1.6 266 8
2006-06-02 09:31:29 51°25.897 3°17.525 23.8 1.5 262 7.9
2006-06-02 09:32:29 51°25.894 3°17.484 30.5 1.4 262 7.9
2006-06-02 09:33:29 51°25.891 3°17.443 36.6 1.7 265 7.9
2006-06-02 09:34:29 51°25.906 3°17.411 18.6 2.9 335 7.9
2006-06-02 09:35:29 51°25.973 3°17.285 300.9 8.5 285 7.6
2006-06-02 09:36:29 51°25.947 3°17.013 260.1 11.9 259 7.5
2006-06-02 09:37:29 51°25.905 3°16.677 259.9 13.2 257 7.3
2006-06-02 09:38:29 51°25.854 3°16.323 261.8 13.8 260 7.1
2006-06-02 09:39:28 51°25.811 3°15.968 260.5 13.9 259 7.1
2006-06-02 09:40:28 51°25.77 3°15.603 262.7 13.8 259 7.1
2006-06-02 09:41:29 51°25.716 3°15.239 261.3 13.9 259 7.2
2006-06-02 09:42:28 51°25.672 3°14.884 259.2 13.9 256 7.1
2006-06-02 09:43:29 51°25.629 3°14.515 262 13.9 258 5.4
2006-06-02 09:44:28 51°25.581 3°14.158 261.2 14.2 261 7.6
2006-06-02 09:45:29 51°25.525 3°13.785 252.3 14.1 250 8.2
2006-06-02 09:46:28 51°25.477 3°13.415 264.6 14.5 263 8.7
2006-06-02 09:47:29 51°25.456 3°13.022 267.2 14.5 265 8.7
2006-06-02 09:48:28 51°25.426 3°12.642 268.2 14.8 266 8.8
2006-06-02 09:49:29 51°25.406 3°12.246 267.3 14.6 264 8.9
2006-06-02 09:50:29 51°25.398 3°11.856 275.8 14.7 273 9
2006-06-02 09:51:29 51°25.451 3°11.48 292.2 14.4 286 8.6
2006-06-02 09:52:29 51°25.549 3°11.141 306.8 13.8 303 7.7
2006-06-02 09:53:29 51°25.679 3°10.852 311.4 13.2 304 6.5
2006-06-02 09:54:29 51°25.81 3°10.576 316.6 13 309 6.7
2006-06-02 09:55:28 51°25.931 3°10.292 308.9 13.1 304 6.9
2006-06-02 09:56:29 51°26.058 3°9.999 309 13.2 299 7
2006-06-02 09:57:28 51°26.114 3°9.662 295.4 13.3 293 5.4
2006-06-02 09:58:29 51°26.21 3°9.331 300.3 13.6 293 7.8
2006-06-02 09:59:29 51°26.299 3°9 300.2 13 294 8.5
2006-06-02 10:00:29 51°26.358 3°8.753 293.8 7.8 287 9.4
2006-06-02 10:01:28 51°26.391 3°8.61 304.2 4.9 297 9.7
2006-06-02 10:02:29 51°26.425 3°8.517 319.3 3.3 305 10
2006-06-02 10:03:28 51°26.438 3°8.476 330.7 0.8 217 10
2006-06-02 10:04:28 51°26.427 3°8.464 334.1 0.8 224 4.7
2006-06-02 10:05:29 51°26.417 3°8.45 333.7 0.8 224 9.7
2006-06-02 10:06:29 51°26.409 3°8.436 332.3 0.9 227 9.8
2006-06-02 10:07:29 51°26.4 3°8.419 328.7 0.9 228 9.7
2006-06-02 10:08:29 51°26.392 3°8.403 325.2 0.8 227 9.8
2006-06-02 10:09:28 51°26.402 3°8.357 315.3 4.3 302 9.7
2006-06-02 10:10:28 51°26.49 3°8.19 318.6 10.3 310 9.8
2006-06-02 10:11:29 51°26.618 3°7.932 313.5 13 306 9.5
2006-06-02 10:12:29 51°26.726 3°7.624 305.5 13.3 300 9.8
2006-06-02 10:13:28 51°26.843 3°7.329 306.6 13.4 301 10.5
2006-06-02 10:14:29 51°26.963 3°7.025 308.3 13.3 302 11.1
2006-06-02 10:15:28 51°27.078 3°6.733 308.6 13 302 11.5
2006-06-02 10:16:29 51°27.196 3°6.437 307.8 12.8 302 12.1
2006-06-02 10:17:28 51°27.308 3°6.147 307.5 13 302 12.6
2006-06-02 10:18:29 51°27.428 3°5.849 308.5 13.1 303 13.1
2006-06-02 10:19:28 51°27.541 3°5.558 307.9 13.2 301 13.7
2006-06-02 10:20:28 51°27.658 3°5.261 309.2 13.2 303 14.1
2006-06-02 10:21:28 51°27.772 3°4.965 308.8 13 303 13.2
2006-06-02 10:22:29 51°27.891 3°4.668 308.4 13 303 13.7
2006-06-02 10:23:29 51°28.008 3°4.376 308.4 13 302 16.3
2006-06-02 10:24:29 51°28.12 3°4.079 308.4 13.1 303 18.3
2006-06-02 10:25:28 51°28.214 3°3.838 308.5 9.5 301 19.9
2006-06-02 10:26:28 51°28.273 3°3.666 306.6 5.4 296 21
2006-06-02 10:27:28 51°28.294 3°3.564 296.2 2.7 275 21.4
2006-06-02 10:28:29 51°28.283 3°3.541 305.5 1.1 196 -999
2006-06-02 10:29:29 51°28.268 3°3.532 301.2 0.8 204 21.5
2006-06-02 10:30:29 51°28.254 3°3.521 295.4 0.9 210 21.3
2006-06-02 10:31:29 51°28.241 3°3.509 288.9 0.9 210 21.2
2006-06-02 10:32:28 51°28.228 3°3.497 283.3 0.9 215 21.3
2006-06-02 10:33:29 51°28.215 3°3.484 278.5 0.8 216 21.3
2006-06-02 10:34:28 51°28.204 3°3.471 273 0.9 215 21.1
2006-06-02 10:35:28 51°28.19 3°3.395 267.9 5.9 262 21.2
2006-06-02 10:36:28 51°28.169 3°3.135 267.8 12 262 21.9
2006-06-02 10:37:28 51°28.143 3°2.791 265.8 13.8 260 22.4
2006-06-02 10:38:28 51°28.08 3°2.433 258.2 14.1 256 22.6
2006-06-02 10:39:29 51°28.019 3°2.067 258.5 14 255 23
2006-06-02 10:40:28 51°27.957 3°1.709 257.9 14.3 253 23.1
2006-06-02 10:41:28 51°27.894 3°1.343 260.1 14.3 258 23.1
2006-06-02 10:42:28 51°27.831 3°0.976 259.4 14.2 254 22.4
2006-06-02 10:43:28 51°27.763 3°0.614 258.8 14.1 253 21.9
2006-06-02 10:44:28 51°27.695 3°0.255 258.9 14.1 253 19.6
2006-06-02 10:45:28 51°27.63 2°59.897 260 13.9 255 18.3
2006-06-02 10:46:28 51°27.562 2°59.539 260.6 14 250 18.3
2006-06-02 10:47:29 51°27.498 2°59.176 259.5 13.9 254 19.2
2006-06-02 10:48:29 51°27.432 2°58.82 259.9 13.9 253 16.5
2006-06-02 10:49:29 51°27.365 2°58.465 258.2 13.9 253 15.8
2006-06-02 10:50:29 51°27.299 2°58.109 259.1 13.9 252 16.8
2006-06-02 10:51:28 51°27.232 2°57.761 258.7 13.9 254 20
2006-06-02 10:52:28 51°27.168 2°57.403 259.7 13.9 252 21.8
2006-06-02 10:53:28 51°27.1 2°57.048 260.5 14 252 22.4
2006-06-02 10:54:28 51°27.036 2°56.69 259.7 14.1 253 18.9
2006-06-02 10:55:28 51°26.972 2°56.327 259.6 14.2 252 24.8
2006-06-02 10:56:29 51°26.908 2°55.962 259.2 14 255 27.1
2006-06-02 10:57:29 51°26.844 2°55.604 257.9 14 254 25.8
2006-06-02 10:58:29 51°26.772 2°55.248 253.1 14.1 246 25.9
2006-06-02 10:59:29 51°26.667 2°54.91 248.4 14.3 244 27.1
2006-06-02 11:00:27 51°26.57 2°54.579 248.4 14.3 243 23.6
2006-06-02 11:01:28 51°26.47 2°54.226 249.3 14.2 244 26.8
2006-06-02 11:02:29 51°26.365 2°53.878 248.2 14.2 243 31.2
2006-06-02 11:03:29 51°26.289 2°53.523 259.8 14.2 254 30.8
2006-06-02 11:04:29 51°26.225 2°53.162 259.2 14.2 253 29.5
2006-06-02 11:05:29 51°26.163 2°52.799 259.6 14.2 255 25.8
2006-06-02 11:06:29 51°26.1 2°52.434 259.5 14.2 253 27.2
2006-06-02 11:07:29 51°26.036 2°52.068 259.5 14.4 255 25.3
2006-06-02 11:08:28 51°26.007 2°51.7 270 14.2 264 28.3
2006-06-02 11:09:29 51°25.982 2°51.318 269.1 14.2 264 22.7
2006-06-02 11:10:29 51°25.955 2°50.939 269.1 14.4 264 22.6
2006-06-02 11:11:28 51°25.928 2°50.566 269.4 14.3 263 22.5
2006-06-02 11:12:29 51°25.902 2°50.179 269.2 14.3 265 22.1
2006-06-02 11:13:28 51°25.875 2°49.806 269.5 14.4 264 22.4
2006-06-02 11:14:29 51°25.853 2°49.421 273.1 14.3 269 22.4
2006-06-02 11:15:29 51°25.883 2°49.05 292.2 13.9 285 23.4
2006-06-02 11:16:29 51°25.926 2°48.799 288.3 7.9 280 23.1
2006-06-02 11:17:29 51°25.954 2°48.634 307.7 5.3 290 23.2
2006-06-02 11:18:28 51°25.974 2°48.544 316.4 2.4 278 23.2
2006-06-02 11:19:29 51°25.963 2°48.513 300.9 1.1 208 -999
2006-06-02 11:20:29 51°25.943 2°48.503 303.1 1.7 204 23.1
2006-06-02 11:21:29 51°25.923 2°48.489 302.6 1.4 207 22.7
2006-06-02 11:22:28 51°25.904 2°48.47 299.8 1.3 209 22.9
2006-06-02 11:23:29 51°25.884 2°48.451 293.9 1.3 214 22.8
2006-06-02 11:24:29 51°25.866 2°48.429 288.4 1.4 217 22.9
2006-06-02 11:25:28 51°25.849 2°48.408 285.5 1.3 222 22.8
2006-06-02 11:26:29 51°25.836 2°48.349 280.1 3.9 261 22.9
2006-06-02 11:27:28 51°25.799 2°48.17 245.4 9.5 242 22.9
2006-06-02 11:28:29 51°25.684 2°47.922 233.7 13.2 235 22.9
2006-06-02 11:29:28 51°25.548 2°47.624 238.5 14.3 240 25
2006-06-02 11:30:29 51°25.446 2°47.274 249.3 14.1 245 25
2006-06-02 11:31:29 51°25.351 2°46.928 249.6 14.2 245 24.5
2006-06-02 11:32:29 51°25.255 2°46.58 250.3 14.2 245 24.6
2006-06-02 11:33:29 51°25.157 2°46.233 248.7 14.3 245 23.9
2006-06-02 11:34:29 51°25.06 2°45.884 249.8 14.4 245 25
2006-06-02 11:35:28 51°24.964 2°45.54 247.8 14.4 246 25.3
2006-06-02 11:36:29 51°24.866 2°45.182 250.4 14.6 247 24.3
2006-06-02 11:37:27 51°24.771 2°44.843 248.2 14.3 244 23.9
2006-06-02 11:38:29 51°24.667 2°44.479 248.7 14.7 242 26.2
2006-06-02 11:39:27 51°24.571 2°44.137 249.1 14.8 249 19.8
2006-06-02 11:40:29 51°24.473 2°43.77 250.3 14.4 247 24.4
2006-06-02 11:41:29 51°24.376 2°43.415 249.2 14.7 246 24.9
2006-06-02 11:42:29 51°24.277 2°43.063 249.5 14.6 249 20.4
2006-06-02 11:43:28 51°24.181 2°42.713 250 14.7 244 24.6
2006-06-02 11:44:29 51°24.081 2°42.354 249.1 14.5 244 23.5
2006-06-02 11:45:29 51°23.982 2°42.002 248.1 14.5 244 25.1
2006-06-02 11:46:29 51°23.884 2°41.65 250.3 14.5 245 27.2
2006-06-02 11:47:28 51°23.788 2°41.304 249.8 14.4 247 26.9
2006-06-02 11:48:29 51°23.691 2°40.944 250.4 14.5 247 25.2
2006-06-02 11:49:29 51°23.593 2°40.593 250.3 14.5 245 28.8
2006-06-02 11:50:29 51°23.482 2°40.251 245.5 14.6 242 29.1
2006-06-02 11:51:29 51°23.374 2°39.906 246.5 14.6 243 27.3
2006-06-02 11:52:29 51°23.258 2°39.566 241.9 14.7 242 28.7
2006-06-02 11:53:29 51°23.136 2°39.231 242.2 14.5 239 28.8
2006-06-02 11:54:28 51°23.018 2°38.9 243.8 14.5 239 29
2006-06-02 11:55:29 51°22.896 2°38.558 245.4 14.6 240 30
2006-06-02 11:56:28 51°22.778 2°38.229 242.5 14.4 240 30.4
2006-06-02 11:57:29 51°22.656 2°37.889 243.7 14.4 242 29.5
2006-06-02 11:58:29 51°22.54 2°37.553 243.8 14.5 242 29.5
2006-06-02 11:59:28 51°22.426 2°37.223 243.5 14.4 242 29.4
2006-06-02 12:00:29 51°22.308 2°36.882 243.1 14.3 241 30.1
2006-06-02 12:01:29 51°22.194 2°36.544 242.5 14.5 242 30.5
2006-06-02 12:02:28 51°22.079 2°36.214 240.9 14.5 239 29.9
2006-06-02 12:03:29 51°21.944 2°35.886 238 14.4 238 30.2
2006-06-02 12:04:29 51°21.816 2°35.558 239.9 14.9 239 29.9
2006-06-02 12:05:29 51°21.69 2°35.23 243.4 14.5 241 30.3
2006-06-02 12:06:28 51°21.575 2°34.899 244 14.5 241 30.5
2006-06-02 12:07:29 51°21.458 2°34.555 244.3 14.3 242 33.2
2006-06-02 12:08:29 51°21.344 2°34.213 242.6 14.8 243 30.4
2006-06-02 12:09:28 51°21.228 2°33.878 241.6 14.6 241 31.7
2006-06-02 12:10:29 51°21.108 2°33.535 243.6 14.4 243 31.7
2006-06-02 12:11:28 51°20.995 2°33.203 243 14.8 241 30.2
2006-06-02 12:12:29 51°20.882 2°32.854 244.9 14.7 241 30.2
2006-06-02 12:13:29 51°20.765 2°32.516 243.7 14.5 243 29.8
2006-06-02 12:14:28 51°20.651 2°32.181 243 14.8 242 30
2006-06-02 12:15:29 51°20.533 2°31.837 244.5 14.6 242 25.9
2006-06-02 12:16:28 51°20.421 2°31.502 244.5 14.7 242 21.7
2006-06-02 12:17:29 51°20.307 2°31.154 244.7 14.5 242 16.6
2006-06-02 12:18:29 51°20.197 2°30.809 244.4 14.8 245 15.7
2006-06-02 12:19:28 51°20.095 2°30.495 243.3 12.3 245 12.8
2006-06-02 12:20:29 51°20.058 2°30.217 269.3 9.2 267 12.1
2006-06-02 12:21:29 51°20.018 2°30.03 222.8 6.7 229 12.2
2006-06-02 12:22:29 51°19.987 2°29.973 171.4 1.8 284 13
2006-06-02 12:23:30 51°19.978 2°29.93 154.8 1.4 230 -999
2006-06-02 12:24:29 51°19.963 2°29.9 141.8 1.2 232 13.8
2006-06-02 12:25:29 51°19.95 2°29.87 126.8 1.4 240 11.4
2006-06-02 12:26:29 51°19.939 2°29.843 121.4 1 236 14.1
2006-06-02 12:27:28 51°19.928 2°29.82 118.5 1.1 233 15.2
2006-06-02 12:28:29 51°19.917 2°29.792 114.4 1 252 14.9
2006-06-02 12:29:29 51°19.908 2°29.763 103.3 1.1 241 12.1
2006-06-02 12:30:29 51°19.899 2°29.753 95 1.4 119 13.4
2006-06-02 12:31:28 51°19.866 2°29.856 116.1 7 124 12.2
2006-06-02 12:32:29 51°19.771 2°30.055 122.8 10.2 130 11.7
2006-06-02 12:33:29 51°19.654 2°30.303 124.4 12 129 15.3
2006-06-02 12:34:29 51°19.526 2°30.555 124.1 12.3 128 19.2
2006-06-02 12:35:28 51°19.399 2°30.806 122.6 12.2 123 25.2
2006-06-02 12:36:29 51°19.27 2°31.067 122.6 12.4 126 29.6
2006-06-02 12:37:29 51°19.141 2°31.321 124.2 12.4 128 29.8
2006-06-02 12:38:29 51°19.011 2°31.575 123.6 12.3 126 29.9
2006-06-02 12:39:29 51°18.882 2°31.83 123.9 12.3 127 29.6
2006-06-02 12:40:29 51°18.754 2°32.086 124.8 12.4 129 31.2
2006-06-02 12:41:28 51°18.628 2°32.342 125.5 12.7 131 29.1
2006-06-02 12:42:29 51°18.496 2°32.606 125.5 12.5 131 25
2006-06-02 12:43:29 51°18.366 2°32.87 124.7 12.6 125 24
2006-06-02 12:44:29 51°18.236 2°33.135 124.5 12.4 128 20.3
2006-06-02 12:45:29 51°18.106 2°33.396 124.1 12.5 130 22
2006-06-02 12:46:29 51°17.978 2°33.658 124.3 12.6 128 26.7
2006-06-02 12:47:29 51°17.848 2°33.917 124.4 12.5 130 27.8
2006-06-02 12:48:29 51°17.722 2°34.18 123.5 12.5 128 24.2
2006-06-02 12:49:28 51°17.598 2°34.442 123.4 12.5 126 22.9
2006-06-02 12:50:29 51°17.473 2°34.708 125.7 11.6 129 12.9
2006-06-02 12:51:29 51°17.351 2°34.969 126 12.1 129 10.7
2006-06-02 12:52:29 51°17.224 2°35.23 126.2 12.8 130 11.8
2006-06-02 12:53:28 51°17.106 2°35.497 119.6 12.6 120 13.4
2006-06-02 12:54:29 51°16.993 2°35.783 118.8 12.5 120 20.4
2006-06-02 12:55:29 51°16.88 2°36.06 118 12.4 125 25.9
2006-06-02 12:56:29 51°16.779 2°36.305 119 8.5 127 26.6
2006-06-02 12:57:29 51°16.715 2°36.429 119 4.6 133 26.2
2006-06-02 12:58:29 51°16.678 2°36.49 105.8 2.2 135 26.2
2006-06-02 12:59:29 51°16.662 2°36.474 88.6 1.5 222 26.4
2006-06-02 13:00:29 51°16.646 2°36.447 82.2 1.5 223 26.2
2006-06-02 13:01:29 51°16.63 2°36.418 78 1.4 232 26.1
2006-06-02 13:02:29 51°16.614 2°36.388 75.4 1.5 228 26.5
2006-06-02 13:03:28 51°16.598 2°36.358 76.2 1.4 236 26.6
2006-06-02 13:04:29 51°16.581 2°36.327 78.9 1.6 229 26.4
2006-06-02 13:05:29 51°16.567 2°36.317 79.1 1 114 26.6
2006-06-02 13:06:29 51°16.554 2°36.453 101.5 7.7 108 27
2006-06-02 13:07:29 51°16.459 2°36.676 133 12.1 142 26.4
2006-06-02 13:08:29 51°16.282 2°36.86 143.3 12.6 145 27.2
2006-06-02 13:09:29 51°16.108 2°37.056 142.5 12.9 143 20.9
2006-06-02 13:10:29 51°15.938 2°37.259 141.6 12.7 141 12.1
2006-06-02 13:11:29 51°15.762 2°37.448 146 12.8 146 10.8
2006-06-02 13:12:29 51°15.585 2°37.635 143.1 12.7 145 11
2006-06-02 13:13:29 51°15.41 2°37.827 140 12.5 143 10.3
2006-06-02 13:14:29 51°15.232 2°38.014 145.1 12.7 148 11.2
2006-06-02 13:15:29 51°15.057 2°38.211 140 12.6 144 14.2
2006-06-02 13:16:28 51°14.883 2°38.405 141.7 13 145 16.4
2006-06-02 13:17:29 51°14.694 2°38.585 153.1 13.4 158 16.9
2006-06-02 13:18:29 51°14.482 2°38.695 160.7 13.5 164 17.4
2006-06-02 13:19:29 51°14.273 2°38.81 160.2 13.3 162 15.2
2006-06-02 13:20:29 51°14.057 2°38.883 173.3 13.2 174 11.3
2006-06-02 13:21:28 51°13.836 2°38.891 183.9 14.1 186 13.8
2006-06-02 13:22:29 51°13.622 2°38.774 211.9 13.2 209 14.6
2006-06-02 13:23:28 51°13.427 2°38.604 207.6 13.6 207 14.6
2006-06-02 13:24:29 51°13.217 2°38.435 207.5 14.3 207 14.2
2006-06-02 13:25:29 51°13.01 2°38.277 206.7 13.8 205 13.9
2006-06-02 13:26:29 51°12.802 2°38.12 206.3 13.6 204 13.5
2006-06-02 13:27:29 51°12.596 2°37.964 209.2 13.9 205 13.1
2006-06-02 13:28:29 51°12.389 2°37.811 207.6 13.4 206 12.9
2006-06-02 13:29:29 51°12.179 2°37.663 204.3 14 202 13.1
2006-06-02 13:30:28 51°11.971 2°37.527 200.8 13.6 199 13.4
2006-06-02 13:31:29 51°11.756 2°37.386 204.7 14.2 205 13.6
2006-06-02 13:32:29 51°11.545 2°37.24 206.2 13.9 206 13.8
2006-06-02 13:33:29 51°11.346 2°37.053 219.4 14 216 13.6
2006-06-02 13:34:29 51°11.156 2°36.845 217 13.5 214 13
2006-06-02 13:35:29 51°10.968 2°36.635 218.3 13.9 217 12.5
2006-06-02 13:36:29 51°10.778 2°36.437 216 13.6 215 11.6
2006-06-02 13:37:28 51°10.594 2°36.24 216.5 13.6 212 11.2
2006-06-02 13:38:29 51°10.397 2°36.051 209 13.7 206 11
2006-06-02 13:39:29 51°10.189 2°35.921 197.2 13.2 193 11.8
2006-06-02 13:40:29 51°9.973 2°35.952 166.4 12.6 165 18.4
2006-06-02 13:41:29 51°9.791 2°36.108 139.5 12.2 137 18.6
2006-06-02 13:42:29 51°9.701 2°36.39 108.3 12 107 17.9
2006-06-02 13:43:28 51°9.708 2°36.7 81.3 12 75 17.1
2006-06-02 13:44:29 51°9.768 2°37.01 77.4 12.1 75 17.1
2006-06-02 13:45:29 51°9.849 2°37.3 64.5 12.1 60 17.1
2006-06-02 13:46:29 51°9.943 2°37.584 68.2 12.1 62 17.2
2006-06-02 13:47:29 51°10.034 2°37.869 68.2 12.2 63 17.4
2006-06-02 13:48:29 51°10.124 2°38.155 67.3 12.1 64 16.9
2006-06-02 13:49:29 51°10.214 2°38.441 69.2 12.3 66 16.1
2006-06-02 13:50:29 51°10.301 2°38.732 68.1 12.1 65 16.6
2006-06-02 13:51:29 51°10.384 2°39.024 69.2 12.1 65 15.8
2006-06-02 13:52:29 51°10.465 2°39.317 70 12.1 66 15.8
2006-06-02 13:53:29 51°10.549 2°39.609 69.2 12.1 65 15.3
2006-06-02 13:54:29 51°10.622 2°39.908 74.9 12.1 73 15
2006-06-02 13:55:29 51°10.687 2°40.213 73.8 12.1 72 14.3
2006-06-02 13:56:29 51°10.751 2°40.518 75.1 12.2 72 13.9
2006-06-02 13:57:29 51°10.811 2°40.809 74.5 10.3 72 13.5
2006-06-02 13:58:29 51°10.859 2°41.054 73.8 9.4 71 13.2
2006-06-02 13:59:28 51°10.909 2°41.286 74.1 9.4 72 13.1
2006-06-02 14:00:29 51°10.952 2°41.512 75.4 7.9 73 13.1
2006-06-02 14:01:29 51°10.987 2°41.68 72.9 5.5 70 13.1
2006-06-02 14:02:29 51°11.014 2°41.792 70.2 4 66 13.2
2006-06-02 14:03:29 51°11.044 2°41.908 70.2 5.9 69 13.1
2006-06-02 14:04:29 51°11.079 2°42.047 64.8 3.5 62 13.1
2006-06-02 14:05:29 51°11.081 2°42.063 80.6 0.2 116 13.2
2006-06-02 14:06:29 51°11.079 2°42.068 93 0.3 121 -999
2006-06-02 14:07:29 51°11.075 2°42.076 101.1 0.3 116 13.3
2006-06-02 14:08:29 51°11.068 2°42.083 107.2 0.5 142 13.2
2006-06-02 14:09:29 51°11.061 2°42.093 111.1 0.6 150 13.3
2006-06-02 14:10:29 51°11.052 2°42.103 111.9 0.7 143 13.5
2006-06-02 14:11:29 51°11.043 2°42.118 106.6 1.2 121 13.5
2006-06-02 14:12:29 51°11.025 2°42.213 104.9 5.9 104 13.6
2006-06-02 14:13:29 51°11.011 2°42.429 91.6 9.8 90 13.7
2006-06-02 14:14:29 51°11.014 2°42.725 90.7 12.1 87 13.5
2006-06-02 14:15:29 51°11.061 2°43.047 75.1 12.6 72 13.4
2006-06-02 14:16:29 51°11.114 2°43.371 77.8 12.6 75 13.4
2006-06-02 14:17:29 51°11.175 2°43.692 72 12.7 69 13.4
2006-06-02 14:18:29 51°11.239 2°44.013 76.4 12.7 73 13.4
2006-06-02 14:19:29 51°11.309 2°44.331 72.4 12.7 71 13.5
2006-06-02 14:20:29 51°11.38 2°44.648 72.5 12.7 71 13.5
2006-06-02 14:21:29 51°11.45 2°44.965 71.7 12.7 70 13.5
2006-06-02 14:22:29 51°11.52 2°45.284 72.8 12.8 72 13.6
2006-06-02 14:23:29 51°11.588 2°45.605 73.3 12.8 71 13.7
2006-06-02 14:24:29 51°11.657 2°45.925 73.7 12.8 71 13.7
2006-06-02 14:25:29 51°11.728 2°46.245 73 12.8 71 13.6
2006-06-02 14:26:29 51°11.787 2°46.571 76.4 12.8 74 13.6
2006-06-02 14:27:29 51°11.849 2°46.895 74.9 12.8 73 13.1
2006-06-02 14:28:29 51°11.909 2°47.221 74.8 12.8 74 12.8
2006-06-02 14:29:29 51°11.968 2°47.547 75.8 12.9 74 12.4
2006-06-02 14:30:29 51°12.024 2°47.877 76.7 12.8 74 12
2006-06-02 14:31:29 51°12.106 2°48.189 63.9 12.9 62 11.8
2006-06-02 14:32:29 51°12.202 2°48.496 66.1 12.9 65 11.7
2006-06-02 14:33:29 51°12.31 2°48.791 58.9 12.9 57 11.7
2006-06-02 14:34:29 51°12.42 2°49.085 62.4 12.9 60 11.7
2006-06-02 14:35:28 51°12.535 2°49.365 57.5 12.9 56 11.9
2006-06-02 14:36:29 51°12.652 2°49.658 58.9 12.9 57 12
2006-06-02 14:37:29 51°12.768 2°49.945 58.9 12.8 57 11.9
2006-06-02 14:38:29 51°12.886 2°50.231 59.6 12.9 57 11.9
2006-06-02 14:39:29 51°13.004 2°50.518 59.3 13 58 11.9
2006-06-02 14:40:28 51°13.119 2°50.804 58.7 13 56 11.9
2006-06-02 14:41:29 51°13.236 2°51.1 60.2 12.9 58 11.9
2006-06-02 14:42:29 51°13.348 2°51.397 62.4 13 61 11.8
2006-06-02 14:43:28 51°13.463 2°51.685 59.9 13.1 59 11.8
2006-06-02 14:44:29 51°13.584 2°51.984 58.7 13.1 56 11.6
2006-06-02 14:45:27 51°13.699 2°52.27 59.2 13.3 57 11.6
2006-06-02 14:46:29 51°13.826 2°52.572 59 13.3 57 11.6
2006-06-02 14:47:29 51°13.95 2°52.864 59.5 13.3 57 11.4
2006-06-02 14:48:29 51°14.064 2°53.169 63 13.3 60 11.2
2006-06-02 14:49:29 51°14.179 2°53.472 64.6 13.4 62 10.9
2006-06-02 14:50:28 51°14.277 2°53.786 65.9 13.5 63 10.7
2006-06-02 14:51:29 51°14.359 2°54.124 74.8 13.5 72 10.6
2006-06-02 14:52:28 51°14.402 2°54.466 86.2 12.9 85 10.9
2006-06-02 14:53:28 51°14.404 2°54.788 96.5 12 93 11.9
2006-06-02 14:54:28 51°14.352 2°55.053 123.4 9.1 119 11.7
2006-06-02 14:55:29 51°14.279 2°55.224 125.7 7 126 12.2
2006-06-02 14:56:28 51°14.206 2°55.346 138.6 6 137 12.1
2006-06-02 14:57:28 51°14.126 2°55.427 156.3 5.6 154 12.2
2006-06-02 14:58:29 51°14.043 2°55.489 156 5.2 153 12.3
2006-06-02 14:59:28 51°13.966 2°55.547 159.5 5.2 157 12.3
2006-06-02 15:00:28 51°13.883 2°55.6 160.8 5.6 158 12.2
2006-06-02 15:01:28 51°13.796 2°55.656 159.5 5.6 156 12.2
2006-06-02 15:02:28 51°13.725 2°55.744 131.9 5.5 129 12.8
2006-06-02 15:03:28 51°13.671 2°55.862 127.7 5.4 124 11.1
2006-06-02 15:04:28 51°13.634 2°55.979 117.5 4.3 113 10.5
2006-06-02 15:05:28 51°13.615 2°56.058 114.8 2.3 112 9.8
2006-06-02 15:06:29 51°13.604 2°56.09 117.4 0.7 132 5.4
2006-06-02 15:07:28 51°13.6 2°56.098 110.8 0.2 131 7.2